Time;durP1;ratioP1;P1;durP2;ratioP2;P2;SDS_P1;SDS_P2;PMS_P1;PMS_P2;Temp;Humidity;BMP_temperature;BMP_pressure;BME280_temperature;BME280_humidity;BME280_pressure;Samples;Min_cycle;Max_cycle;Signal;HPM_P1;HPM_P2
2022/12/21 00:00:14;;;;;;;14.13;5.73;;;;;;;18.07;50.62;100154.09;5053672;28;20183;-64
2022/12/21 00:02:40;;;;;;;13.37;5.67;;;;;;;18.17;50.36;100159.97;5067279;28;20218;-63
2022/12/21 00:05:06;;;;;;;10.80;5.20;;;;;;;18.33;49.71;100152.13;5062224;28;20212;-64
2022/12/21 00:07:32;;;;;;;9.17;5.10;;;;;;;18.44;50.81;100153.13;5049511;28;20187;-64
2022/12/21 00:09:58;;;;;;;11.43;5.53;;;;;;;18.61;51.00;100146.84;5066477;28;20455;-64
2022/12/21 00:12:23;;;;;;;13.07;5.30;;;;;;;18.47;50.81;100140.91;5066370;28;20186;-64
2022/12/21 00:14:49;;;;;;;14.23;4.87;;;;;;;18.50;50.53;100145.03;5046340;28;20648;-64
2022/12/21 00:17:15;;;;;;;10.57;5.03;;;;;;;18.54;50.20;100140.19;5068139;28;20186;-63
2022/12/21 00:19:40;;;;;;;13.17;4.90;;;;;;;18.59;50.28;100135.00;5064270;28;20643;-63
2022/12/21 00:22:06;;;;;;;14.80;5.37;;;;;;;18.60;49.92;100136.63;5081918;28;20208;-63
2022/12/21 00:24:32;;;;;;;15.83;5.67;;;;;;;18.54;49.58;100129.59;5075357;28;20258;-63
2022/12/21 00:26:57;;;;;;;15.60;6.33;;;;;;;18.55;49.36;100127.56;5065320;28;20816;-63
2022/12/21 00:29:23;;;;;;;13.50;5.30;;;;;;;18.51;49.41;100116.06;5082803;28;20194;-63
2022/12/21 00:31:49;;;;;;;10.80;5.17;;;;;;;18.52;49.52;100129.16;5082574;28;20595;-64
2022/12/21 00:34:18;;;;;;;9.97;4.73;;;;;;;18.53;49.10;100116.53;5051318;28;20191;-64
2022/12/21 00:36:44;;;;;;;7.90;4.70;;;;;;;18.57;48.71;100128.00;5049490;28;20437;-64
2022/12/21 00:39:09;;;;;;;11.77;4.70;;;;;;;18.55;48.83;100125.53;5070788;28;20444;-63
2022/12/21 00:41:35;;;;;;;11.63;5.13;;;;;;;18.57;48.92;100128.00;5061492;28;20187;-64
2022/12/21 00:44:00;;;;;;;15.50;4.57;;;;;;;18.55;48.93;100122.66;5074113;28;20183;-64
2022/12/21 00:46:27;;;;;;;11.67;4.57;;;;;;;18.57;48.68;100119.44;5069421;28;20199;-63
2022/12/21 00:48:55;;;;;;;12.93;4.90;;;;;;;18.53;48.49;100125.09;5045926;28;20190;-64
2022/12/21 00:51:21;;;;;;;12.40;4.83;;;;;;;18.49;48.33;100118.50;5073511;28;20425;-64
2022/12/21 00:53:47;;;;;;;11.27;4.60;;;;;;;18.52;47.98;100117.72;5051486;28;20465;-65
2022/12/21 00:56:13;;;;;;;9.37;4.20;;;;;;;18.51;48.47;100112.41;5035972;28;20908;-64
2022/12/21 00:58:38;;;;;;;10.00;4.67;;;;;;;18.48;48.34;100111.13;5053627;28;20491;-64
2022/12/21 01:01:06;;;;;;;11.80;4.53;;;;;;;18.39;48.66;100116.31;5055901;28;20191;-64
2022/12/21 01:03:33;;;;;;;11.00;4.70;;;;;;;18.44;49.07;100118.00;5042617;28;20209;-63
2022/12/21 01:05:58;;;;;;;10.47;5.23;;;;;;;18.42;48.70;100118.38;5071846;28;20842;-65
2022/12/21 01:08:24;;;;;;;10.03;4.67;;;;;;;18.45;48.81;100109.03;5073262;28;20436;-64
2022/12/21 01:10:55;;;;;;;17.40;4.30;;;;;;;18.44;48.92;100115.13;5073182;28;20191;-64
2022/12/21 01:13:20;;;;;;;10.60;4.50;;;;;;;18.46;48.86;100116.41;5036310;28;20411;-64
2022/12/21 01:15:46;;;;;;;9.10;4.23;;;;;;;18.47;48.82;100109.47;5082138;28;20432;-64
2022/12/21 01:18:12;;;;;;;9.03;4.30;;;;;;;18.50;48.93;100108.72;5060951;28;20256;-64
2022/12/21 01:20:41;;;;;;;10.63;4.73;;;;;;;18.47;49.19;100111.53;5053678;28;20221;-64
2022/12/21 01:23:07;;;;;;;11.07;4.57;;;;;;;18.50;49.09;100099.28;5038141;28;20539;-64
2022/12/21 01:25:33;;;;;;;9.67;4.23;;;;;;;18.51;49.02;100112.41;5071466;28;20413;-64
2022/12/21 01:27:59;;;;;;;9.30;4.80;;;;;;;18.52;49.38;100119.75;5066657;28;20179;-64
2022/12/21 01:30:24;;;;;;;9.13;4.60;;;;;;;18.50;49.21;100113.59;5073030;28;20179;-64
2022/12/21 01:32:50;;;;;;;14.30;4.60;;;;;;;18.51;49.27;100118.94;5058946;28;20430;-64
2022/12/21 01:35:15;;;;;;;8.50;4.40;;;;;;;18.54;49.36;100120.19;5071561;28;20183;-64
2022/12/21 01:37:41;;;;;;;9.77;3.93;;;;;;;18.49;49.24;100112.78;5073584;28;20201;-64
2022/12/21 01:40:06;;;;;;;6.97;4.10;;;;;;;18.48;49.27;100114.00;5071897;28;20271;-64
2022/12/21 01:42:32;;;;;;;7.90;3.73;;;;;;;18.49;49.34;100131.97;5069088;28;20899;-64
2022/12/21 01:45:02;;;;;;;9.97;4.17;;;;;;;18.48;49.70;100125.44;5088654;28;20820;-64
2022/12/21 01:47:54;;;;;;;7.30;4.17;;;;;;;18.54;49.52;100118.16;5055945;28;20286;-64
2022/12/21 01:50:29;;;;;;;8.07;4.10;;;;;;;18.54;49.37;100123.88;5024447;28;20492;-64
2022/12/21 01:52:55;;;;;;;9.47;3.80;;;;;;;18.52;49.39;100120.56;5055326;28;20462;-64
2022/12/21 01:55:20;;;;;;;8.03;4.13;;;;;;;18.54;49.33;100105.91;5034717;28;20501;-64
2022/12/21 01:57:45;;;;;;;8.00;4.57;;;;;;;18.50;49.52;100105.00;5055679;28;20208;-64
2022/12/21 02:00:36;;;;;;;10.63;4.00;;;;;;;18.50;49.64;100111.56;5054031;28;20519;-64
2022/12/21 02:03:03;;;;;;;9.37;4.30;;;;;;;18.49;49.45;100112.78;5037964;28;20279;-64
2022/12/21 02:05:42;;;;;;;9.83;4.30;;;;;;;18.52;49.39;100108.34;5065810;28;20450;-64
2022/12/21 02:08:07;;;;;;;11.10;5.20;;;;;;;18.51;49.31;100101.78;5021705;28;20446;-64
2022/12/21 02:10:33;;;;;;;11.60;5.13;;;;;;;18.52;49.62;100103.41;5064699;28;20444;-64
2022/12/21 02:13:06;;;;;;;7.17;4.47;;;;;;;18.51;49.54;100104.63;5073103;28;20545;-64
2022/12/21 02:16:00;;;;;;;7.70;4.03;;;;;;;18.51;49.57;100100.97;5072944;28;20175;-64
2022/12/21 02:18:59;;;;;;;9.50;4.07;;;;;;;18.48;49.51;100102.56;5037956;28;20438;-64
2022/12/21 02:21:28;;;;;;;8.30;3.70;;;;;;;18.51;50.06;100098.13;5052698;28;20856;-63
2022/12/21 02:24:31;;;;;;;9.80;4.23;;;;;;;18.50;49.59;100103.00;5036589;28;20893;-63
2022/12/21 02:27:24;;;;;;;9.83;3.77;;;;;;;18.49;49.86;100100.50;5051889;28;20398;-63
2022/12/21 02:29:52;;;;;;;6.53;3.77;;;;;;;18.44;49.96;100101.69;5054057;28;20918;-64
2022/12/21 02:32:31;;;;;;;9.70;3.63;;;;;;;18.52;49.65;100100.56;5051729;28;20398;-63
2022/12/21 02:35:25;;;;;;;6.70;4.43;;;;;;;18.53;49.48;100102.22;5035003;28;20438;-64
2022/12/21 02:37:55;;;;;;;8.57;3.63;;;;;;;18.47;49.72;100098.03;5036533;28;20398;-64
2022/12/21 02:40:46;;;;;;;9.63;4.00;;;;;;;18.51;49.73;100090.34;5066844;28;20421;-64
2022/12/21 02:46:58;;;;;;;13.10;3.90;;;;;;;18.49;49.69;100089.91;5053190;28;20931;-64
2022/12/21 02:49:24;;;;;;;6.73;4.03;;;;;;;18.45;49.52;100083.31;5034257;28;20426;-64
2022/12/21 02:52:04;;;;;;;11.43;3.63;;;;;;;18.48;49.79;100081.72;5034336;28;20422;-64
2022/12/21 02:54:29;;;;;;;12.30;3.83;;;;;;;18.47;49.83;100082.94;5068170;28;20564;-64
2022/12/21 02:56:54;;;;;;;9.03;4.23;;;;;;;18.47;49.91;100089.47;5072110;28;20926;-64
2022/12/21 02:59:23;;;;;;;7.80;3.70;;;;;;;18.46;49.87;100075.56;5064355;28;20725;-64
2022/12/21 03:02:10;;;;;;;7.63;3.70;;;;;;;18.49;49.95;100080.50;5053422;28;20175;-64
2022/12/21 03:04:47;;;;;;;6.17;3.30;;;;;;;18.46;49.72;100081.28;5067559;28;20506;-64
2022/12/21 03:07:35;;;;;;;10.93;3.20;;;;;;;18.46;49.91;100084.97;5051775;28;20401;-64
2022/12/21 03:10:29;;;;;;;5.83;3.23;;;;;;;18.46;49.97;100075.56;5051897;28;20413;-64
2022/12/21 03:13:12;;;;;;;8.67;3.27;;;;;;;18.43;49.77;100091.47;5028808;28;20450;-64
2022/12/21 03:15:44;;;;;;;8.83;3.80;;;;;;;18.46;49.81;100087.81;5051399;28;20418;-64
2022/12/21 03:18:24;;;;;;;12.80;4.13;;;;;;;18.45;49.79;100085.34;5053173;28;20493;-64
2022/12/21 03:20:54;;;;;;;5.83;3.57;;;;;;;18.43;49.97;100088.59;5054155;28;20418;-64
2022/12/21 03:23:33;;;;;;;6.73;2.90;;;;;;;18.36;50.04;100088.47;5071808;28;20462;-64
2022/12/21 03:26:12;;;;;;;18.47;4.10;;;;;;;18.39;49.97;100081.16;5050802;28;20411;-64
2022/12/21 03:28:38;;;;;;;7.90;3.50;;;;;;;18.43;49.80;100082.88;5036505;28;20430;-64
2022/12/21 03:31:10;;;;;;;10.50;4.10;;;;;;;18.41;49.93;100085.28;5033687;28;20524;-64
2022/12/21 03:33:38;;;;;;;8.20;4.20;;;;;;;18.41;49.97;100084.47;5017420;28;20437;-64
2022/12/21 03:36:14;;;;;;;8.00;3.53;;;;;;;18.39;49.90;100079.16;5034816;28;20440;-64
2022/12/21 03:38:42;;;;;;;8.70;3.10;;;;;;;18.37;50.04;100080.75;5062978;28;20900;-64
2022/12/21 03:41:17;;;;;;;5.87;3.73;;;;;;;18.37;50.07;100078.69;5030859;28;20445;-64
2022/12/21 03:43:43;;;;;;;6.10;3.37;;;;;;;18.36;49.96;100082.75;5017198;28;20552;-64
2022/12/21 03:46:13;;;;;;;9.07;3.40;;;;;;;18.39;50.04;100079.16;5033485;28;20468;-64
2022/12/21 03:48:49;;;;;;;6.47;2.83;;;;;;;18.37;50.14;100075.81;5051207;28;20182;-64
2022/12/21 03:51:26;;;;;;;10.07;3.20;;;;;;;18.37;50.13;100070.13;5052997;28;20438;-64
2022/12/21 03:54:00;;;;;;;6.47;2.80;;;;;;;18.36;50.00;100071.31;5048195;28;20448;-64
2022/12/21 03:56:32;;;;;;;6.83;3.47;;;;;;;18.41;50.00;100076.72;5070440;28;20416;-64
2022/12/21 03:58:58;;;;;;;7.13;3.40;;;;;;;18.38;50.04;100073.81;5066512;28;20444;-64
2022/12/21 04:01:42;;;;;;;7.47;2.87;;;;;;;18.36;50.13;100071.31;5050412;28;20415;-64
2022/12/21 04:04:42;;;;;;;5.93;3.17;;;;;;;18.36;49.87;100073.38;5061345;28;20215;-64
2022/12/21 04:07:08;;;;;;;5.10;2.70;;;;;;;18.39;50.39;100070.56;5021932;28;20430;-65
2022/12/21 04:09:33;;;;;;;6.57;3.60;;;;;;;18.37;50.33;100067.25;5033099;28;20487;-65
2022/12/21 04:14:43;;;;;;;9.40;3.70;;;;;;;18.38;50.21;100071.78;5070393;28;20280;-64
2022/12/21 04:17:08;;;;;;;6.47;3.30;;;;;;;18.37;49.85;100060.72;5049089;28;20438;-65
2022/12/21 04:30:30;;;;;;;6.43;3.10;;;;;;;18.39;49.94;100058.31;5066856;28;20440;-64
2022/12/21 04:32:55;;;;;;;6.77;3.60;;;;;;;18.35;50.39;100057.41;5069698;28;20418;-64
2022/12/21 04:35:21;;;;;;;9.97;3.43;;;;;;;18.33;50.10;100049.25;5063250;28;20175;-64
2022/12/21 04:37:46;;;;;;;7.03;2.90;;;;;;;18.37;50.09;100055.03;5051783;28;20187;-65
2022/12/21 04:40:11;;;;;;;7.70;3.27;;;;;;;18.39;50.21;100056.28;5051789;28;20182;-64
2022/12/21 04:42:40;;;;;;;6.83;3.33;;;;;;;18.34;50.27;100056.63;5050485;28;20207;-65
2022/12/21 04:45:06;;;;;;;9.13;3.00;;;;;;;18.41;50.06;100061.63;5063019;28;20178;-65
2022/12/21 04:47:31;;;;;;;6.50;3.53;;;;;;;18.39;49.72;100056.28;5070318;28;20904;-64
2022/12/21 04:49:56;;;;;;;6.13;2.83;;;;;;;18.40;50.09;100057.91;5066147;28;20187;-64
2022/12/21 04:52:22;;;;;;;5.70;3.03;;;;;;;18.36;50.16;100065.63;5050537;28;20508;-64
2022/12/21 04:54:47;;;;;;;4.17;2.40;;;;;;;18.40;50.09;100055.06;5050214;28;20659;-64
2022/12/21 04:57:13;;;;;;;6.03;2.67;;;;;;;18.42;49.96;100052.63;5065409;28;20514;-65
2022/12/21 04:59:38;;;;;;;4.50;2.53;;;;;;;18.40;49.90;100055.06;5070974;28;20182;-64
2022/12/21 05:02:03;;;;;;;5.07;2.93;;;;;;;18.42;49.97;100060.41;5066357;28;20180;-65
2022/12/21 05:04:29;;;;;;;5.30;3.57;;;;;;;18.39;50.09;100052.59;5064077;28;20199;-64
2022/12/21 05:06:55;;;;;;;8.50;3.50;;;;;;;18.38;49.86;100045.22;5069136;28;20186;-64
2022/12/21 05:09:20;;;;;;;5.30;2.93;;;;;;;18.40;50.08;100039.94;5066041;28;20250;-64
2022/12/21 05:11:46;;;;;;;4.90;3.20;;;;;;;18.38;50.03;100042.38;5069782;28;20171;-65
2022/12/21 05:14:11;;;;;;;5.10;2.97;;;;;;;18.39;50.10;100044.84;5064880;28;20168;-65
2022/12/21 05:16:38;;;;;;;5.63;2.90;;;;;;;18.38;50.11;100039.50;5050317;28;20217;-64
2022/12/21 05:19:04;;;;;;;6.07;2.90;;;;;;;18.40;49.81;100054.22;5053366;28;20206;-64
2022/12/21 05:21:29;;;;;;;5.60;3.20;;;;;;;18.40;49.96;100040.78;5056528;28;20945;-64
2022/12/21 05:23:54;;;;;;;3.80;2.27;;;;;;;18.39;50.05;100039.13;5035841;28;20191;-64
2022/12/21 05:26:20;;;;;;;5.90;3.13;;;;;;;18.41;49.97;100039.56;5053864;28;20207;-65
2022/12/21 05:28:46;;;;;;;6.93;2.83;;;;;;;18.38;50.08;100030.94;5037058;28;20179;-63
2022/12/21 05:31:11;;;;;;;6.50;2.97;;;;;;;18.36;49.82;100031.31;5070235;28;20567;-63
2022/12/21 05:33:37;;;;;;;5.07;3.10;;;;;;;18.42;49.96;100034.69;5055662;28;20171;-63
2022/12/21 05:36:06;;;;;;;10.17;2.57;;;;;;;18.37;50.14;100032.97;5073712;28;20232;-63
2022/12/21 05:38:32;;;;;;;4.83;2.87;;;;;;;18.42;49.96;100028.97;5052118;28;20228;-63
2022/12/21 05:40:57;;;;;;;4.23;2.50;;;;;;;18.43;49.95;100022.88;5073663;28;20410;-63
2022/12/21 05:43:22;;;;;;;4.50;2.53;;;;;;;18.41;50.01;100022.41;5073445;28;20202;-63
2022/12/21 05:45:48;;;;;;;4.80;2.70;;;;;;;18.39;49.91;100024.84;5073463;28;20901;-63
2022/12/21 05:48:14;;;;;;;7.57;2.80;;;;;;;18.40;49.87;100022.78;5070070;28;20182;-63
2022/12/21 05:50:39;;;;;;;5.07;2.80;;;;;;;18.38;50.13;100023.19;5073677;28;20844;-63
2022/12/21 05:53:05;;;;;;;4.43;2.70;;;;;;;18.36;49.94;100021.94;5073028;28;20162;-63
2022/12/21 05:55:31;;;;;;;5.30;2.60;;;;;;;18.37;49.81;100021.53;5073332;28;20228;-63
2022/12/21 05:57:56;;;;;;;7.20;2.80;;;;;;;18.40;49.90;100014.22;5050241;28;20440;-63
2022/12/21 06:00:22;;;;;;;4.17;2.30;;;;;;;18.41;50.17;100013.03;5070570;28;20194;-63
2022/12/21 06:02:47;;;;;;;6.20;2.67;;;;;;;18.43;49.90;100024.88;5054858;28;20563;-63
2022/12/21 06:05:13;;;;;;;4.57;2.30;;;;;;;18.43;49.89;100024.88;5066716;28;20543;-63
2022/12/21 06:07:38;;;;;;;4.07;2.40;;;;;;;18.43;50.15;100025.72;5054886;28;20183;-63
2022/12/21 06:10:04;;;;;;;4.90;2.50;;;;;;;18.42;50.00;100020.38;5052135;28;20266;-63
2022/12/21 06:12:30;;;;;;;4.40;2.40;;;;;;;18.42;50.03;100028.97;5034925;28;20218;-63
2022/12/21 06:14:55;;;;;;;4.90;2.60;;;;;;;18.41;50.23;100028.13;5052803;28;20179;-63
2022/12/21 06:17:21;;;;;;;4.83;2.90;;;;;;;18.42;50.02;100035.47;5055448;28;20190;-63
2022/12/21 06:19:46;;;;;;;4.40;2.43;;;;;;;18.42;49.99;100035.47;5044450;28;20656;-63
2022/12/21 06:22:11;;;;;;;3.97;2.37;;;;;;;18.45;49.96;100036.75;5066149;28;20176;-63
2022/12/21 06:24:37;;;;;;;5.37;2.47;;;;;;;18.39;50.14;100038.28;5034957;28;20168;-63
2022/12/21 06:27:02;;;;;;;5.63;2.13;;;;;;;18.39;49.88;100042.00;5052945;28;20517;-63
2022/12/21 06:29:28;;;;;;;6.60;2.27;;;;;;;18.44;49.71;100043.69;5036413;28;20203;-63
2022/12/21 06:31:53;;;;;;;5.57;2.50;;;;;;;18.43;49.75;100045.72;5052612;28;20160;-63
2022/12/21 06:34:19;;;;;;;3.40;1.97;;;;;;;18.40;49.77;100060.78;5056133;28;20839;-63
2022/12/21 06:36:44;;;;;;;3.13;2.03;;;;;;;18.43;49.89;100045.72;5072541;28;20205;-63
2022/12/21 06:39:09;;;;;;;4.07;2.30;;;;;;;18.40;49.84;100054.22;5074140;28;20229;-63
2022/12/21 06:41:35;;;;;;;6.30;2.70;;;;;;;18.41;49.94;100056.72;5056050;28;20233;-63
2022/12/21 06:44:00;;;;;;;4.00;2.37;;;;;;;18.37;50.21;100052.97;5053288;28;20563;-63
2022/12/21 06:46:26;;;;;;;5.03;2.53;;;;;;;18.39;49.69;100056.28;5052317;28;20667;-63
2022/12/21 06:48:51;;;;;;;4.90;2.23;;;;;;;18.45;49.88;100057.59;5062494;28;20178;-63
2022/12/21 06:51:21;;;;;;;4.13;1.93;;;;;;;18.44;49.90;100053.09;5068727;28;20187;-63
2022/12/21 06:53:47;;;;;;;3.30;2.20;;;;;;;18.43;49.80;100059.19;5054181;28;20617;-63
2022/12/21 06:56:20;;;;;;;4.90;2.37;;;;;;;18.43;49.69;100064.91;5071070;28;20462;-63
2022/12/21 06:58:49;;;;;;;5.30;2.57;;;;;;;18.38;49.80;100056.66;5072464;28;20819;-62
2022/12/21 07:01:16;;;;;;;2.93;1.87;;;;;;;18.39;49.96;100062.00;5072072;28;20493;-63
2022/12/21 07:03:41;;;;;;;3.80;2.30;;;;;;;18.40;49.84;100065.66;5050247;28;20477;-63
2022/12/21 07:06:07;;;;;;;4.37;2.30;;;;;;;18.45;50.02;100069.03;5059265;28;20978;-63
2022/12/21 07:08:33;;;;;;;4.13;2.40;;;;;;;18.49;49.89;100063.34;5051872;28;20643;-65
2022/12/21 07:11:03;;;;;;;5.47;3.40;;;;;;;18.43;50.08;100065.75;5027718;28;20428;-63
2022/12/21 07:13:28;;;;;;;3.73;2.00;;;;;;;18.46;49.70;100070.66;5037892;28;20606;-63
2022/12/21 07:15:54;;;;;;;7.40;2.20;;;;;;;18.46;50.06;100075.56;5051049;28;20498;-63
2022/12/21 07:18:20;;;;;;;6.53;2.37;;;;;;;18.45;49.91;100074.75;5035411;28;20775;-63
2022/12/21 07:20:45;;;;;;;4.20;2.37;;;;;;;18.48;49.97;100078.84;5072696;28;20425;-63
2022/12/21 07:23:11;;;;;;;4.00;2.13;;;;;;;18.42;50.12;100086.13;5069737;28;20263;-63
2022/12/21 07:25:36;;;;;;;3.03;2.10;;;;;;;18.43;49.95;100082.88;5053408;28;20184;-63
2022/12/21 07:28:01;;;;;;;5.00;2.20;;;;;;;18.43;49.96;100087.78;5051166;28;20175;-63
2022/12/21 07:30:27;;;;;;;4.23;2.37;;;;;;;18.45;49.73;100097.59;5053873;28;20184;-63
2022/12/21 07:32:55;;;;;;;3.20;1.80;;;;;;;18.48;49.77;100090.28;5051555;28;20615;-64
2022/12/21 07:35:30;;;;;;;5.87;2.33;;;;;;;18.46;49.72;100099.25;5038375;28;20240;-65
2022/12/21 07:37:56;;;;;;;5.27;2.20;;;;;;;18.44;50.00;100095.13;5034774;28;20460;-63
2022/12/21 07:40:21;;;;;;;3.43;2.20;;;;;;;18.44;49.80;100092.28;5060998;28;20854;-64
2022/12/21 07:42:47;;;;;;;3.20;1.93;;;;;;;18.46;49.89;100095.59;5058276;28;20682;-64
2022/12/21 07:45:12;;;;;;;5.03;3.03;;;;;;;18.48;49.70;100107.44;5043941;28;20202;-64
2022/12/21 07:47:38;;;;;;;3.00;2.30;;;;;;;18.46;50.01;100093.53;5070242;28;20537;-63
2022/12/21 07:50:04;;;;;;;4.30;2.50;;;;;;;18.50;49.75;100105.00;5065233;28;20249;-64
2022/12/21 07:52:30;;;;;;;4.87;2.20;;;;;;;18.47;50.02;100098.03;5051326;28;20172;-64
2022/12/21 07:54:55;;;;;;;3.17;2.10;;;;;;;18.45;49.83;100097.59;5050844;28;20503;-63
2022/12/21 07:57:21;;;;;;;3.33;2.20;;;;;;;18.46;49.91;100099.25;5055162;28;20188;-63
2022/12/21 07:59:46;;;;;;;4.20;2.57;;;;;;;18.49;49.71;100104.22;5070857;28;20189;-63
2022/12/21 08:02:12;;;;;;;5.90;2.53;;;;;;;18.48;50.01;100111.13;5065065;28;20174;-63
2022/12/21 08:04:37;;;;;;;4.47;1.90;;;;;;;18.44;49.83;100098.00;5063697;28;20198;-63
2022/12/21 08:07:03;;;;;;;4.77;2.00;;;;;;;18.50;49.91;100105.84;5052113;28;20171;-63
2022/12/21 08:09:28;;;;;;;3.97;2.63;;;;;;;18.46;49.90;100096.38;5061263;28;20212;-63
2022/12/21 08:11:53;;;;;;;4.03;2.20;;;;;;;18.46;49.88;100093.53;5068453;28;20232;-63
2022/12/21 08:14:19;;;;;;;3.37;2.10;;;;;;;18.45;49.83;100102.47;5049033;28;20172;-63
2022/12/21 08:16:44;;;;;;;4.80;1.97;;;;;;;18.49;49.98;100109.94;5049167;28;20203;-63
2022/12/21 08:19:10;;;;;;;4.80;1.90;;;;;;;18.48;49.73;100111.13;5048682;28;20183;-63
2022/12/21 08:21:35;;;;;;;3.10;1.70;;;;;;;18.45;49.97;100108.19;5050503;28;20859;-64
2022/12/21 08:24:01;;;;;;;3.70;1.83;;;;;;;18.50;50.06;100116.44;5055254;28;20272;-63
2022/12/21 08:26:26;;;;;;;2.70;1.90;;;;;;;18.47;49.98;100102.94;5050634;28;20183;-63
2022/12/21 08:28:52;;;;;;;3.57;1.60;;;;;;;18.44;49.89;100095.97;5069632;28;20648;-63
2022/12/21 08:31:18;;;;;;;4.57;2.03;;;;;;;18.46;49.76;100096.38;5069606;28;20622;-63
2022/12/21 08:33:46;;;;;;;6.60;2.10;;;;;;;18.41;50.28;100081.63;5065545;28;20183;-63
2022/12/21 08:36:13;;;;;;;5.53;2.13;;;;;;;18.45;49.87;100091.88;5069703;28;20437;-63
2022/12/21 08:38:39;;;;;;;3.33;2.00;;;;;;;18.50;49.55;100097.28;5067481;28;20487;-63
2022/12/21 08:41:04;;;;;;;5.20;2.20;;;;;;;18.49;49.88;100097.66;5050592;28;20426;-63
2022/12/21 08:43:30;;;;;;;3.37;1.93;;;;;;;18.49;49.63;100092.78;5061772;28;20228;-63
2022/12/21 08:45:55;;;;;;;2.50;1.60;;;;;;;18.44;49.82;100098.81;5059376;28;20175;-63
2022/12/21 08:48:21;;;;;;;4.83;1.97;;;;;;;18.46;49.95;100087.00;5050576;28;20171;-63
2022/12/21 08:50:50;;;;;;;4.13;2.20;;;;;;;18.46;49.67;100102.09;5052749;28;20187;-64
2022/12/21 08:53:16;;;;;;;4.83;2.40;;;;;;;18.48;49.76;100107.44;5053833;28;20223;-63
2022/12/21 08:55:41;;;;;;;3.70;2.30;;;;;;;18.44;49.74;100107.41;5047009;28;20941;-63
2022/12/21 08:58:07;;;;;;;3.40;2.10;;;;;;;18.48;49.86;100119.72;5059935;28;20701;-64
2022/12/21 09:00:32;;;;;;;3.53;1.83;;;;;;;18.44;49.95;100118.84;5056417;28;20191;-63
2022/12/21 09:02:58;;;;;;;2.73;1.70;;;;;;;18.46;49.97;100118.44;5038609;28;20622;-64
2022/12/21 09:05:23;;;;;;;3.77;1.80;;;;;;;18.43;50.11;100111.47;5067264;28;20196;-64
2022/12/21 09:07:48;;;;;;;2.67;1.90;;;;;;;18.42;49.82;100126.16;5062361;28;20229;-63
2022/12/21 09:10:14;;;;;;;3.50;1.70;;;;;;;18.40;50.02;100117.94;5075900;28;20171;-63
2022/12/21 09:12:39;;;;;;;4.17;2.20;;;;;;;18.47;49.72;100122.94;5052562;28;20183;-64
2022/12/21 09:15:05;;;;;;;4.00;1.90;;;;;;;18.45;49.98;100133.94;5071279;28;20220;-64
2022/12/21 09:17:31;;;;;;;3.60;1.90;;;;;;;18.46;49.86;100133.56;5071892;28;20167;-63
2022/12/21 09:19:57;;;;;;;4.57;1.83;;;;;;;18.41;50.13;100135.94;5028249;28;21007;-63
2022/12/21 09:22:23;;;;;;;3.37;2.00;;;;;;;18.43;52.65;100134.34;5062825;28;20205;-64
2022/12/21 09:24:49;;;;;;;11.30;2.53;;;;;;;18.54;54.04;100146.75;5049437;28;20441;-64
2022/12/21 09:27:14;;;;;;;6.17;2.70;;;;;;;18.79;55.64;100147.13;5086010;28;20661;-64
2022/12/21 09:29:39;;;;;;;7.70;2.60;;;;;;;18.80;53.95;100145.91;5083213;28;20170;-64
2022/12/21 09:32:05;;;;;;;4.30;2.10;;;;;;;18.76;54.11;100153.63;5073732;28;20175;-63
2022/12/21 09:34:30;;;;;;;5.53;2.40;;;;;;;18.67;54.35;100150.22;5081257;28;20175;-63
2022/12/21 09:36:56;;;;;;;5.87;2.30;;;;;;;18.70;53.29;100152.28;5072073;28;20167;-64
2022/12/21 09:39:22;;;;;;;4.60;2.40;;;;;;;18.73;53.91;100148.66;5071253;28;20861;-64
2022/12/21 09:42:08;;;;;;;6.80;2.13;;;;;;;18.75;53.52;100147.06;5071771;28;20175;-63
2022/12/21 09:44:46;;;;;;;7.40;2.30;;;;;;;18.70;53.25;100149.44;5052847;28;20187;-63
2022/12/21 09:47:20;;;;;;;3.40;1.87;;;;;;;18.67;53.10;100153.09;5053394;28;20394;-63
2022/12/21 09:49:59;;;;;;;4.40;2.17;;;;;;;18.65;52.44;100146.91;5023664;28;21293;-63
2022/12/21 09:52:36;;;;;;;3.60;1.67;;;;;;;18.70;52.37;100143.72;5045710;28;20841;-63
2022/12/21 09:55:11;;;;;;;4.77;1.63;;;;;;;18.59;51.93;100149.28;5035542;28;20477;-63
2022/12/21 09:57:37;;;;;;;4.93;1.70;;;;;;;18.49;52.07;100149.94;5065108;28;20518;-63
2022/12/21 10:00:07;;;;;;;4.13;1.67;;;;;;;18.55;51.79;100154.13;5088858;28;20424;-63
2022/12/21 10:02:53;;;;;;;4.30;2.00;;;;;;;18.56;51.63;100150.03;5045831;28;20203;-63
2022/12/21 10:05:30;;;;;;;6.47;2.00;;;;;;;18.84;52.35;100150.47;5039642;28;20856;-63
2022/12/21 10:07:58;;;;;;;6.80;2.60;;;;;;;19.04;52.40;100145.44;5041569;28;20933;-63
2022/12/21 10:10:40;;;;;;;9.03;2.63;;;;;;;18.97;50.95;100142.50;5075133;28;20435;-63
2022/12/21 10:13:37;;;;;;;4.30;1.90;;;;;;;18.85;51.36;100146.41;5062714;28;20682;-63
2022/12/21 10:16:23;;;;;;;5.33;1.90;;;;;;;18.69;52.41;100142.06;5066997;28;20467;-63
2022/12/21 10:19:08;;;;;;;5.60;2.00;;;;;;;18.63;52.44;100157.91;5032876;28;20428;-63
2022/12/21 10:21:43;;;;;;;4.73;2.40;;;;;;;18.66;52.50;100149.38;5026436;28;20438;-63
2022/12/21 10:24:33;;;;;;;6.80;2.00;;;;;;;18.62;52.73;100139.91;5046073;28;20875;-63
2022/12/21 10:27:03;;;;;;;4.73;2.10;;;;;;;18.64;51.70;100139.53;5054408;28;20436;-63
2022/12/21 10:29:34;;;;;;;5.00;2.00;;;;;;;18.72;52.52;100139.25;5054490;28;20460;-63
2022/12/21 10:31:59;;;;;;;4.97;1.70;;;;;;;18.69;52.77;100137.19;5032760;28;20460;-63
2022/12/21 10:34:31;;;;;;;9.80;1.93;;;;;;;18.76;52.34;100136.47;5050622;28;20505;-64
2022/12/21 10:36:59;;;;;;;9.10;1.80;;;;;;;18.82;53.32;100129.19;5048592;28;20187;-63
2022/12/21 10:39:25;;;;;;;4.40;2.10;;;;;;;18.83;52.92;100142.28;5080189;28;20428;-63
2022/12/21 10:42:00;;;;;;;7.53;2.47;;;;;;;18.84;53.14;100139.03;5068529;28;20464;-63
2022/12/21 10:44:25;;;;;;;7.43;1.77;;;;;;;18.78;52.99;100137.75;5069504;28;20194;-63
2022/12/21 10:46:50;;;;;;;7.53;1.90;;;;;;;18.70;53.54;100138.81;5052202;28;20935;-63
2022/12/21 10:49:31;;;;;;;5.97;2.23;;;;;;;18.66;53.02;100137.94;5070393;28;20186;-64
2022/12/21 10:51:57;;;;;;;8.17;2.00;;;;;;;18.59;52.95;100135.00;5032714;28;20569;-63
2022/12/21 10:54:27;;;;;;;5.30;1.80;;;;;;;18.54;52.95;100141.03;5050004;28;20458;-64
2022/12/21 10:56:52;;;;;;;10.43;2.07;;;;;;;18.47;53.05;100131.53;5078547;28;20542;-63
2022/12/21 10:59:29;;;;;;;7.37;2.00;;;;;;;18.46;53.01;100133.56;5043522;28;20432;-64
2022/12/21 11:01:54;;;;;;;7.43;2.30;;;;;;;18.43;52.97;100139.22;5057843;28;20879;-63
2022/12/21 11:04:23;;;;;;;5.17;2.47;;;;;;;18.51;55.14;100138.94;5077127;28;20551;-64
2022/12/21 11:07:21;;;;;;;6.43;2.93;;;;;;;18.56;55.21;100127.19;5071842;28;20182;-64
2022/12/21 11:10:00;;;;;;;7.47;2.60;;;;;;;18.60;55.15;100139.50;5058286;28;20442;-62
2022/12/21 11:12:26;;;;;;;10.77;2.57;;;;;;;18.59;55.43;100129.28;5072733;28;20439;-63
2022/12/21 11:14:52;;;;;;;24.23;3.37;;;;;;;18.61;55.06;100135.41;5061831;28;20429;-63
2022/12/21 11:17:23;;;;;;;11.57;3.10;;;;;;;18.62;55.12;100134.19;5037257;28;20246;-64
2022/12/21 11:19:49;;;;;;;13.30;2.50;;;;;;;18.64;55.23;100133.81;5043772;28;20785;-64
2022/12/21 11:22:15;;;;;;;8.10;2.00;;;;;;;18.62;54.73;100131.34;5054517;28;20452;-63
2022/12/21 11:24:41;;;;;;;9.00;2.60;;;;;;;18.65;54.75;100132.59;5051117;28;20433;-64
2022/12/21 11:27:10;;;;;;;21.00;2.80;;;;;;;18.68;54.78;100129.00;5055134;28;20893;-63
2022/12/21 11:29:41;;;;;;;9.77;2.33;;;;;;;18.65;54.45;100129.75;5059234;28;20509;-63
2022/12/21 11:32:08;;;;;;;10.13;2.00;;;;;;;18.65;54.43;100130.59;5053151;28;21186;-63
2022/12/21 11:34:59;;;;;;;13.20;2.30;;;;;;;18.65;54.33;100124.03;5055882;28;20434;-63
2022/12/21 11:37:36;;;;;;;9.90;1.90;;;;;;;18.60;54.52;100128.06;5055492;28;20799;-63
2022/12/21 11:40:11;;;;;;;8.43;2.23;;;;;;;18.65;54.23;100124.03;5067570;28;20425;-63
2022/12/21 11:42:49;;;;;;;13.10;2.20;;;;;;;18.65;54.10;100118.31;5062752;28;20475;-63
2022/12/21 11:45:36;;;;;;;11.03;2.97;;;;;;;18.62;54.11;100122.75;5072129;28;20402;-63
2022/12/21 11:48:32;;;;;;;4.63;2.00;;;;;;;18.63;54.12;100117.88;5053119;28;21032;-63
2022/12/21 11:51:34;;;;;;;10.30;2.70;;;;;;;18.62;54.03;100111.31;5073166;28;20429;-63